Terminal Aerodrome Forecast
Issued by NWS

Home | Current Version | Previous Version | Text Only | Print | Product List | Glossary On
Versions: 1 2 3 4 5 6 7 8 9 10 11 12 13 14 15 16 17 18 19 20 21 22 23 24 25 26 27 28 29 30 31 32 33 34 35 36 37 38 39 40 41 42 43 44 45 46 47 48 49 50
000
FTUS43 KMKX 221134
TAFENW
TAF
KENW 221134Z 2212/2312 14007KT 5SM BR OVC060
     FM221500 13010KT 6SM BR OVC050
     FM222000 12012KT 3SM -RA OVC030
     FM222300 12013G20KT 2SM -RA OVC015
     FM230600 11013G20KT 2SM RA OVC003
     FM231100 14011KT 3SM RA OVC003=

USA.gov is the U.S. government's official web portal to all federal, state and local government web resources and services.